Austell, Georgia
Current Conditions -  °F | °C
As of 3:53 PM on Sunday 21 Dec 2014 (Local Time) from KFTY Reporting Station
Overcast Overcast  
Wind Chill:   Ceiling: 1200
Heat Index:   Visibility: 10mi
Dew Point:   Wind: 8mph
Humidity: 80%   Direction: 80°E
Pressure: 30.11"   Gusts: NA
Location:  33.82°N, 84.64°W
Report Text: KFTY 212053Z 08007KT 10SM OVC012 09/06 A3011 RMK AO2 SLP197 T00940061 56014
Loading
Personal Weather Stations






























Interactive Weather Map New forecast layout! Learn more

10-Day Weather Forecast

Advertisements
Track Severe Weather on mobile